createdAt,value
2018-04-18T00:02:17.352Z,99211.02
2018-04-18T00:04:43.614Z,99208.84
2018-04-18T00:07:09.870Z,99205.65
2018-04-18T00:09:36.110Z,99209.45
2018-04-18T00:12:02.370Z,99208.56
2018-04-18T00:14:28.630Z,99220.14
2018-04-18T00:16:54.895Z,99218.73
2018-04-18T00:19:21.123Z,99222.37
2018-04-18T00:21:47.368Z,99229.48
2018-04-18T00:24:13.631Z,99233.23
2018-04-18T00:26:39.871Z,99226.92
2018-04-18T00:29:06.174Z,99230.27
2018-04-18T00:31:32.411Z,99236.43
2018-04-18T00:33:58.644Z,99238.91
2018-04-18T00:36:24.910Z,99233.84
2018-04-18T00:38:51.147Z,99241.31
2018-04-18T00:41:17.435Z,99240.03
2018-04-18T00:43:43.723Z,99236.60
2018-04-18T00:46:09.968Z,99237.52
2018-04-18T00:48:36.226Z,99230.89
2018-04-18T00:51:02.470Z,99239.75
2018-04-18T00:53:28.768Z,99236.16
2018-04-18T00:55:55.002Z,99238.33
2018-04-18T00:58:21.243Z,99242.89
2018-04-18T01:00:47.522Z,99240.30
2018-04-18T01:03:13.764Z,99230.28
2018-04-18T01:05:40.027Z,99231.75
2018-04-18T01:08:06.267Z,99232.50
2018-04-18T01:10:32.525Z,99219.70
2018-04-18T01:12:58.810Z,99219.02
2018-04-18T01:15:32.095Z,99223.92
2018-04-18T01:17:58.370Z,99230.38
2018-04-18T01:20:24.615Z,99222.53
2018-04-18T01:22:50.848Z,99220.27
2018-04-18T01:25:17.115Z,99218.45
2018-04-18T01:27:43.355Z,99216.50
2018-04-18T01:30:09.618Z,99222.53
2018-04-18T01:32:35.859Z,99209.56
2018-04-18T01:35:02.099Z,99220.67
2018-04-18T01:37:28.355Z,99223.39
2018-04-18T01:39:54.606Z,99221.93
2018-04-18T01:42:20.899Z,99222.61
2018-04-18T01:44:47.187Z,99219.16
2018-04-18T01:47:13.426Z,99222.44
2018-04-18T01:49:39.702Z,99219.41
2018-04-18T01:52:05.974Z,99213.51
2018-04-18T01:54:32.206Z,99217.50
2018-04-18T01:56:58.435Z,99214.33
2018-04-18T01:59:24.773Z,99218.33
2018-04-18T02:01:50.979Z,99219.40
2018-04-18T02:04:17.211Z,99209.34
2018-04-18T02:06:43.471Z,99212.24
2018-04-18T02:09:09.699Z,99210.86
2018-04-18T02:11:36.011Z,99212.84
2018-04-18T02:14:02.250Z,99219.54
2018-04-18T02:16:28.489Z,99218.33
2018-04-18T02:18:54.752Z,99223.87
2018-04-18T02:21:21.018Z,99221.66
2018-04-18T02:23:47.282Z,99226.34
2018-04-18T02:26:13.523Z,99224.00
2018-04-18T02:28:39.799Z,99222.83
2018-04-18T02:31:06.115Z,99229.25
2018-04-18T02:33:32.386Z,99226.12
2018-04-18T02:35:58.678Z,99227.11
2018-04-18T02:38:24.936Z,99221.31
2018-04-18T02:40:51.175Z,99222.44
2018-04-18T02:43:17.427Z,99219.31
2018-04-18T02:45:43.671Z,99226.64
2018-04-18T02:48:09.956Z,99224.16
2018-04-18T02:50:36.243Z,99219.05
2018-04-18T02:53:02.492Z,99227.16
2018-04-18T02:55:28.750Z,99227.66
2018-04-18T02:57:55.007Z,99229.80
2018-04-18T03:00:21.282Z,99233.25
2018-04-18T03:02:47.525Z,99230.09
2018-04-18T03:05:13.770Z,99232.48
2018-04-18T03:07:40.036Z,99230.66
2018-04-18T03:10:06.269Z,99224.63
2018-04-18T03:12:32.534Z,99233.73
2018-04-18T03:14:58.771Z,99220.98
2018-04-18T03:17:25.010Z,99229.52
2018-04-18T03:19:51.316Z,99229.95
2018-04-18T03:22:17.546Z,99227.47
2018-04-18T03:24:43.827Z,99235.02
2018-04-18T03:27:10.064Z,99234.84
2018-04-18T03:29:36.291Z,99234.80
2018-04-18T03:32:02.579Z,99237.67
2018-04-18T03:34:28.859Z,99239.17
2018-04-18T03:36:55.123Z,99243.98
2018-04-18T03:39:21.359Z,99241.11
2018-04-18T03:41:47.610Z,99242.71
2018-04-18T03:44:13.891Z,99247.31
2018-04-18T03:46:40.175Z,99249.73
2018-04-18T03:49:06.443Z,99245.05
2018-04-18T03:51:32.678Z,99246.69
2018-04-18T03:53:58.932Z,99253.63
2018-04-18T03:56:25.187Z,99250.70
2018-04-18T03:58:51.424Z,99247.63
2018-04-18T04:01:17.700Z,99247.37
2018-04-18T04:03:43.933Z,99248.84
2018-04-18T04:06:10.178Z,99257.05
2018-04-18T04:08:36.440Z,99255.53
2018-04-18T04:11:02.691Z,99255.78
2018-04-18T04:13:28.987Z,99260.80
2018-04-18T04:15:55.258Z,99259.95
2018-04-18T04:18:33.831Z,99261.95
2018-04-18T04:21:12.395Z,99267.75
2018-04-18T04:23:50.939Z,99273.08
2018-04-18T04:26:17.170Z,99271.32
2018-04-18T04:28:43.398Z,99271.00
2018-04-18T04:31:09.650Z,99265.91
2018-04-18T04:33:35.932Z,99271.93
2018-04-18T04:36:02.247Z,99270.05
2018-04-18T04:38:28.478Z,99275.16
2018-04-18T04:40:54.735Z,99272.53
2018-04-18T04:43:20.983Z,99282.98
2018-04-18T04:45:47.227Z,99284.54
2018-04-18T04:48:13.495Z,99289.37
2018-04-18T04:50:39.731Z,99289.93
2018-04-18T04:53:05.997Z,99298.92
2018-04-18T04:55:32.256Z,99301.33
2018-04-18T04:57:58.514Z,99300.28
2018-04-18T05:00:24.832Z,99310.05
2018-04-18T05:02:51.072Z,99316.82
2018-04-18T05:05:17.302Z,99314.40
2018-04-18T05:07:43.554Z,99320.28
2018-04-18T05:10:09.787Z,99320.34
2018-04-18T05:12:36.050Z,99324.91
2018-04-18T05:15:02.305Z,99327.76
2018-04-18T05:17:28.542Z,99337.44
2018-04-18T05:19:54.798Z,99340.73
2018-04-18T05:22:21.026Z,99345.34
2018-04-18T05:24:47.287Z,99341.68
2018-04-18T05:27:13.548Z,99344.73
2018-04-18T05:29:39.791Z,99348.30
2018-04-18T05:32:06.063Z,99353.13
2018-04-18T05:34:32.302Z,99351.52
2018-04-18T05:36:58.568Z,99358.41
2018-04-18T05:39:24.812Z,99362.20
2018-04-18T05:41:51.071Z,99365.27
2018-04-18T05:44:17.330Z,99364.05
2018-04-18T05:46:43.589Z,99367.80
2018-04-18T05:49:09.854Z,99369.73
2018-04-18T05:51:36.114Z,99371.27
2018-04-18T05:54:02.356Z,99371.62
2018-04-18T05:56:28.667Z,99367.96
2018-04-18T05:58:54.967Z,99368.11
2018-04-18T06:01:21.217Z,99369.22
2018-04-18T06:03:47.445Z,99370.85
2018-04-18T06:06:13.725Z,99366.00
2018-04-18T06:08:39.983Z,99367.99
2018-04-18T06:11:06.219Z,99372.50
2018-04-18T06:13:32.479Z,99375.02
2018-04-18T06:15:58.714Z,99372.16
2018-04-18T06:18:24.970Z,99374.06
2018-04-18T06:20:51.211Z,99379.55
2018-04-18T06:23:17.446Z,99376.27
2018-04-18T06:25:43.699Z,99377.63
2018-04-18T06:28:09.951Z,99379.44
2018-04-18T06:30:36.215Z,99382.22
2018-04-18T06:33:02.444Z,99381.77
2018-04-18T06:35:28.686Z,99381.00
2018-04-18T06:37:54.967Z,99379.67
2018-04-18T06:40:21.206Z,99391.31
2018-04-18T06:42:47.534Z,99387.69
2018-04-18T06:45:13.795Z,99383.09
2018-04-18T06:47:40.031Z,99392.88
2018-04-18T06:50:06.283Z,99399.12
2018-04-18T06:52:32.522Z,99397.58
2018-04-18T06:54:58.813Z,99399.18
2018-04-18T06:57:25.055Z,99405.09
2018-04-18T06:59:51.303Z,99400.13
2018-04-18T07:02:17.564Z,99399.81
2018-04-18T07:04:43.795Z,99400.08
2018-04-18T07:07:10.058Z,99398.24
2018-04-18T07:09:36.296Z,99405.23
2018-04-18T07:12:02.547Z,99401.22
2018-04-18T07:14:28.823Z,99399.47
2018-04-18T07:16:55.058Z,99410.27
2018-04-18T07:19:21.327Z,99404.77
2018-04-18T07:21:47.563Z,99406.29
2018-04-18T07:24:13.823Z,99404.56
2018-04-18T07:26:40.099Z,99410.95
2018-04-18T07:29:06.351Z,99407.54
2018-04-18T07:31:32.621Z,99404.38
2018-04-18T07:33:58.875Z,99410.74
2018-04-18T07:36:25.139Z,99411.12
2018-04-18T07:38:51.442Z,99413.30
2018-04-18T07:41:17.695Z,99409.16
2018-04-18T07:43:43.995Z,99415.52
2018-04-18T07:46:10.239Z,99418.38
2018-04-18T07:48:36.478Z,99415.48
2018-04-18T07:51:02.749Z,99415.28
2018-04-18T07:53:28.991Z,99409.18
2018-04-18T07:55:55.323Z,99414.80
2018-04-18T07:58:21.615Z,99422.29
2018-04-18T08:00:47.865Z,99415.85
2018-04-18T08:03:14.148Z,99420.05
2018-04-18T08:05:40.391Z,99420.75
2018-04-18T08:08:06.687Z,99424.59
2018-04-18T08:10:32.934Z,99423.41
2018-04-18T08:12:59.222Z,99415.89
2018-04-18T08:15:25.576Z,99421.12
2018-04-18T08:17:51.758Z,99423.50
2018-04-18T08:20:18.035Z,99428.88
2018-04-18T08:22:44.311Z,99432.02
2018-04-18T08:25:10.542Z,99429.88
2018-04-18T08:27:36.860Z,99426.95
2018-04-18T08:30:03.132Z,99424.05
2018-04-18T08:32:29.403Z,99428.11
2018-04-18T08:34:55.642Z,99426.54
2018-04-18T08:37:21.898Z,99419.55
2018-04-18T08:39:48.158Z,99419.84
2018-04-18T08:42:14.469Z,99434.31
2018-04-18T08:44:40.746Z,99436.14
2018-04-18T08:47:07.031Z,99437.64
2018-04-18T08:49:33.327Z,99428.74
2018-04-18T08:51:59.582Z,99432.22
2018-04-18T08:54:25.830Z,99438.78
2018-04-18T08:56:52.127Z,99432.38
2018-04-18T08:59:18.374Z,99433.77
2018-04-18T09:01:44.631Z,99440.55
2018-04-18T09:04:10.903Z,99440.35
2018-04-18T09:06:37.175Z,99440.30
2018-04-18T09:09:03.555Z,99436.89
2018-04-18T09:11:29.806Z,99440.92
2018-04-18T09:13:56.052Z,99435.16
2018-04-18T09:16:22.332Z,99435.86
2018-04-18T09:18:48.579Z,99433.48
2018-04-18T09:21:14.866Z,99435.44
2018-04-18T09:23:41.135Z,99429.93
2018-04-18T09:26:07.379Z,99427.36
2018-04-18T09:28:33.660Z,99429.63
2018-04-18T09:30:59.910Z,99430.90
2018-04-18T09:33:26.237Z,99439.50
2018-04-18T09:35:52.483Z,99438.44
2018-04-18T09:38:18.783Z,99441.93
2018-04-18T09:40:45.064Z,99430.15
2018-04-18T09:43:11.329Z,99438.58
2018-04-18T09:45:37.612Z,99429.74
2018-04-18T09:48:03.863Z,99437.98
2018-04-18T09:50:30.107Z,99442.19
2018-04-18T09:52:56.367Z,99437.09
2018-04-18T09:55:22.623Z,99436.83
2018-04-18T09:57:48.908Z,99441.62
2018-04-18T10:00:15.183Z,99439.25
2018-04-18T10:02:41.458Z,99446.16
2018-04-18T10:05:07.741Z,99439.88
2018-04-18T10:07:34.023Z,99440.45
2018-04-18T10:10:00.293Z,99442.06
2018-04-18T10:12:26.582Z,99441.43
2018-04-18T10:14:52.826Z,99448.06
2018-04-18T10:17:19.071Z,99440.80
2018-04-18T10:19:45.353Z,99441.95
2018-04-18T10:22:11.610Z,99446.80
2018-04-18T10:24:37.854Z,99448.69
2018-04-18T10:27:04.125Z,99443.79
2018-04-18T10:29:30.367Z,99450.75
2018-04-18T10:31:56.637Z,99445.97
2018-04-18T10:34:22.880Z,99449.80
2018-04-18T10:36:49.187Z,99446.41
2018-04-18T10:39:15.487Z,99438.63
2018-04-18T10:41:41.735Z,99440.62
2018-04-18T10:44:08.018Z,99441.59
2018-04-18T10:46:34.271Z,99429.25
2018-04-18T10:49:00.533Z,99439.67
2018-04-18T10:51:26.807Z,99433.25
2018-04-18T10:53:53.047Z,99433.02
2018-04-18T10:56:19.315Z,99438.34
2018-04-18T10:58:45.581Z,99440.90
2018-04-18T11:01:11.827Z,99434.25
2018-04-18T11:03:38.127Z,99434.62
2018-04-18T11:06:04.393Z,99438.36
2018-04-18T11:08:30.671Z,99434.75
2018-04-18T11:10:56.939Z,99433.06
2018-04-18T11:13:23.179Z,99428.05
2018-04-18T11:15:49.447Z,99419.80
2018-04-18T11:18:15.696Z,99420.92
2018-04-18T11:20:41.990Z,99416.83
2018-04-18T11:23:08.232Z,99413.05
2018-04-18T11:25:34.514Z,99418.12
2018-04-18T11:28:00.782Z,99407.93
2018-04-18T11:30:27.035Z,99404.61
2018-04-18T11:32:53.307Z,99402.97
2018-04-18T11:35:19.588Z,99407.13
2018-04-18T11:37:45.843Z,99406.81
2018-04-18T11:40:12.152Z,99405.34
2018-04-18T11:42:38.426Z,99400.68
2018-04-18T11:45:04.719Z,99398.84
2018-04-18T11:47:30.970Z,99406.23
2018-04-18T11:49:57.243Z,99404.62
2018-04-18T11:52:23.516Z,99395.11
2018-04-18T11:54:49.784Z,99394.41
2018-04-18T11:57:16.084Z,99395.16
2018-04-18T11:59:42.341Z,99396.52
2018-04-18T12:02:08.635Z,99396.41
2018-04-18T12:04:34.895Z,99394.56
2018-04-18T12:07:01.174Z,99394.20
2018-04-18T12:09:27.455Z,99394.45
2018-04-18T12:11:53.702Z,99390.27
2018-04-18T12:14:19.974Z,99391.65
2018-04-18T12:16:46.287Z,99382.00
2018-04-18T12:19:12.539Z,99391.11
2018-04-18T12:21:38.851Z,99389.19
2018-04-18T12:24:05.135Z,99387.89
2018-04-18T12:26:31.382Z,99380.51
2018-04-18T12:28:57.665Z,99378.57
2018-04-18T12:31:23.925Z,99376.52
2018-04-18T12:33:50.223Z,99383.45
2018-04-18T12:36:16.459Z,99381.25
2018-04-18T12:38:42.702Z,99377.30
2018-04-18T12:41:08.966Z,99376.70
2018-04-18T12:43:35.263Z,99378.30
2018-04-18T12:46:01.550Z,99371.92
2018-04-18T12:48:27.801Z,99369.69
2018-04-18T12:50:54.039Z,99369.20
2018-04-18T12:53:20.310Z,99364.83
2018-04-18T12:55:46.560Z,99360.08
2018-04-18T12:58:12.854Z,99364.45
2018-04-18T13:00:39.111Z,99369.97
2018-04-18T13:03:05.362Z,99367.92
2018-04-18T13:05:31.636Z,99362.47
2018-04-18T13:07:57.913Z,99356.90
2018-04-18T13:10:24.222Z,99356.05
2018-04-18T13:12:50.471Z,99353.93
2018-04-18T13:15:16.715Z,99355.83
2018-04-18T13:17:42.989Z,99352.48
2018-04-18T13:20:09.277Z,99352.18
2018-04-18T13:22:35.571Z,99347.87
2018-04-18T13:25:01.815Z,99346.88
2018-04-18T13:27:28.072Z,99346.03
2018-04-18T13:29:54.343Z,99352.20
2018-04-18T13:32:20.590Z,99342.93
2018-04-18T13:34:46.878Z,99334.02
2018-04-18T13:37:13.144Z,99340.29
2018-04-18T13:39:39.442Z,99335.55
2018-04-18T13:42:05.755Z,99340.72
2018-04-18T13:44:32.054Z,99341.72
2018-04-18T13:46:58.346Z,99336.17
2018-04-18T13:49:24.595Z,99339.09
2018-04-18T13:51:50.868Z,99335.16
2018-04-18T13:54:17.154Z,99334.05
2018-04-18T13:56:43.424Z,99339.19
2018-04-18T13:59:09.771Z,99332.78
2018-04-18T14:01:36.024Z,99329.34
2018-04-18T14:04:02.279Z,99338.95
2018-04-18T14:06:28.548Z,99325.68
2018-04-18T14:08:54.803Z,99330.19
2018-04-18T14:11:21.084Z,99324.67
2018-04-18T14:13:47.326Z,99327.49
2018-04-18T14:16:13.588Z,99322.36
2018-04-18T14:18:39.868Z,99324.36
2018-04-18T14:21:06.117Z,99319.22
2018-04-18T14:23:32.383Z,99323.25
2018-04-18T14:25:58.665Z,99323.13
2018-04-18T14:28:24.959Z,99322.70
2018-04-18T14:30:51.248Z,99320.23
2018-04-18T14:33:17.537Z,99316.57
2018-04-18T14:35:43.896Z,99319.23
2018-04-18T14:38:10.140Z,99320.42
2018-04-18T14:40:36.419Z,99323.20
2018-04-18T14:43:02.670Z,99321.98
2018-04-18T14:45:28.955Z,99318.70
2018-04-18T14:47:55.201Z,99318.08
2018-04-18T14:50:21.467Z,99319.23
2018-04-18T14:52:47.739Z,99311.55
2018-04-18T14:55:13.987Z,99312.45
2018-04-18T14:57:40.261Z,99315.17
2018-04-18T15:00:06.528Z,99312.78
2018-04-18T15:02:32.775Z,99313.98
2018-04-18T15:04:59.042Z,99315.63
2018-04-18T15:07:25.289Z,99307.68
2018-04-18T15:09:51.574Z,99311.29
2018-04-18T15:12:17.821Z,99315.40
2018-04-18T15:14:44.064Z,99312.97
2018-04-18T15:17:10.323Z,99314.62
2018-04-18T15:19:36.563Z,99312.41
2018-04-18T15:22:02.845Z,99307.56
2018-04-18T15:24:29.108Z,99316.42
2018-04-18T15:26:55.347Z,99308.89
2018-04-18T15:29:21.624Z,99314.23
2018-04-18T15:31:47.911Z,99308.25
2018-04-18T15:34:14.195Z,99306.10
2018-04-18T15:36:40.453Z,99306.38
2018-04-18T15:39:06.707Z,99305.72
2018-04-18T15:41:32.986Z,99306.72
2018-04-18T15:43:59.226Z,99297.45
2018-04-18T15:46:25.507Z,99302.30
2018-04-18T15:48:51.750Z,99303.23
2018-04-18T15:51:17.991Z,99306.13
2018-04-18T15:53:44.295Z,99301.14
2018-04-18T15:56:10.564Z,99305.27
2018-04-18T15:58:36.918Z,99303.71
2018-04-18T16:01:03.171Z,99301.48
2018-04-18T16:03:29.428Z,99295.37
2018-04-18T16:05:55.699Z,99294.72
2018-04-18T16:08:21.962Z,99294.53
2018-04-18T16:10:48.252Z,99295.34
2018-04-18T16:13:14.496Z,99299.02
2018-04-18T16:15:40.738Z,99300.14
2018-04-18T16:18:07.031Z,99297.28
2018-04-18T16:20:33.286Z,99300.95
2018-04-18T16:22:59.579Z,99297.81
2018-04-18T16:25:25.847Z,99301.48
2018-04-18T16:27:52.075Z,99306.49
2018-04-18T16:30:30.487Z,99296.56
2018-04-18T16:32:56.763Z,99291.55
2018-04-18T16:35:23.067Z,99296.42
2018-04-18T16:37:49.352Z,99294.45
2018-04-18T16:40:15.595Z,99299.30
2018-04-18T16:42:41.863Z,99295.13
2018-04-18T16:45:08.136Z,99292.61
2018-04-18T16:47:34.390Z,99284.63
2018-04-18T16:50:00.635Z,99281.50
2018-04-18T16:52:26.867Z,99283.80
2018-04-18T16:54:53.122Z,99279.90
2018-04-18T16:57:19.404Z,99271.98
2018-04-18T16:59:45.684Z,99270.52
2018-04-18T17:02:11.926Z,99268.56
2018-04-18T17:04:38.152Z,99272.05
2018-04-18T17:07:04.414Z,99269.97
2018-04-18T17:09:30.655Z,99272.69
2018-04-18T17:11:56.935Z,99268.10
2018-04-18T17:14:23.215Z,99269.35
2018-04-18T17:16:49.470Z,99265.48
2018-04-18T17:19:15.735Z,99264.31
2018-04-18T17:21:41.986Z,99269.71
2018-04-18T17:24:08.274Z,99266.17
2018-04-18T17:26:34.515Z,99263.55
2018-04-18T17:29:00.754Z,99261.73
2018-04-18T17:31:27.081Z,99265.77
2018-04-18T17:33:53.360Z,99260.61
2018-04-18T17:36:19.626Z,99262.91
2018-04-18T17:38:45.909Z,99262.72
2018-04-18T17:41:12.146Z,99261.11
2018-04-18T17:43:38.419Z,99267.68
2018-04-18T17:46:04.671Z,99265.30
2018-04-18T17:48:30.984Z,99264.48
2018-04-18T17:50:57.253Z,99266.48
2018-04-18T17:53:23.495Z,99265.41
2018-04-18T17:55:49.793Z,99264.03
2018-04-18T17:58:16.038Z,99264.59
2018-04-18T18:00:42.316Z,99266.45
2018-04-18T18:03:08.582Z,99262.77
2018-04-18T18:05:34.823Z,99272.46
2018-04-18T18:08:01.095Z,99270.56
2018-04-18T18:10:27.367Z,99268.92
2018-04-18T18:12:53.643Z,99267.30
2018-04-18T18:15:19.894Z,99272.11
2018-04-18T18:17:46.176Z,99274.06
2018-04-18T18:20:12.439Z,99279.22
2018-04-18T18:22:38.704Z,99280.12
2018-04-18T18:25:04.986Z,99283.47
2018-04-18T18:27:31.299Z,99283.34
2018-04-18T18:29:57.550Z,99286.95
2018-04-18T18:32:23.795Z,99282.95
2018-04-18T18:34:50.061Z,99283.61
2018-04-18T18:37:16.316Z,99288.86
2018-04-18T18:39:42.563Z,99291.66
2018-04-18T18:42:08.832Z,99291.41
2018-04-18T18:44:35.095Z,99294.44
2018-04-18T18:47:01.365Z,99297.50
2018-04-18T18:49:27.611Z,99298.77
2018-04-18T18:51:53.856Z,99306.17
2018-04-18T18:54:20.151Z,99309.20
2018-04-18T18:56:46.387Z,99318.03
2018-04-18T18:59:12.652Z,99311.34
2018-04-18T19:01:38.887Z,99317.33
2018-04-18T19:04:05.140Z,99319.20
2018-04-18T19:06:31.398Z,99313.80
2018-04-18T19:08:57.637Z,99317.37
2018-04-18T19:11:23.919Z,99324.52
2018-04-18T19:13:50.181Z,99324.17
2018-04-18T19:16:16.476Z,99328.72
2018-04-18T19:18:42.738Z,99334.04
2018-04-18T19:21:08.976Z,99332.45
2018-04-18T19:23:35.253Z,99327.70
2018-04-18T19:26:01.496Z,99325.59
2018-04-18T19:28:27.870Z,99333.22
2018-04-18T19:30:54.031Z,99330.33
2018-04-18T19:33:20.259Z,99329.02
2018-04-18T19:35:46.626Z,99329.07
2018-04-18T19:38:12.887Z,99338.01
2018-04-18T19:40:39.134Z,99336.95
2018-04-18T19:43:05.440Z,99338.16
2018-04-18T19:45:31.682Z,99339.20
2018-04-18T19:47:57.956Z,99340.94
2018-04-18T19:50:24.203Z,99335.61
2018-04-18T19:52:50.448Z,99339.39
2018-04-18T19:55:17.851Z,99340.50
2018-04-18T19:57:44.116Z,99339.28
2018-04-18T20:00:10.391Z,99341.38
2018-04-18T20:02:36.629Z,99340.30
2018-04-18T20:05:02.919Z,99345.70
2018-04-18T20:07:29.171Z,99345.64
2018-04-18T20:09:55.432Z,99342.25
2018-04-18T20:12:21.703Z,99344.19
2018-04-18T20:14:47.958Z,99341.28
2018-04-18T20:17:14.191Z,99344.05
2018-04-18T20:19:40.455Z,99344.74
2018-04-18T20:22:06.692Z,99352.52
2018-04-18T20:24:32.959Z,99347.81
2018-04-18T20:26:59.191Z,99352.87
2018-04-18T20:29:25.459Z,99353.35
2018-04-18T20:31:51.726Z,99355.19
2018-04-18T20:34:17.987Z,99349.52
2018-04-18T20:36:53.151Z,99351.86
2018-04-18T20:39:19.388Z,99347.03
2018-04-18T20:41:54.859Z,99353.34
2018-04-18T20:44:21.102Z,99350.21
2018-04-18T20:46:47.336Z,99353.97
2018-04-18T20:49:13.587Z,99347.77
2018-04-18T20:51:39.812Z,99353.56
2018-04-18T20:54:06.083Z,99353.71
2018-04-18T20:56:32.347Z,99354.70
2018-04-18T20:58:58.584Z,99357.14
2018-04-18T21:01:24.835Z,99353.41
2018-04-18T21:03:51.066Z,99357.47
2018-04-18T21:06:17.338Z,99345.00
2018-04-18T21:08:43.631Z,99347.41
2018-04-18T21:11:09.864Z,99356.70
2018-04-18T21:13:36.118Z,99354.81
2018-04-18T21:16:02.371Z,99353.46
2018-04-18T21:18:28.656Z,99350.12
2018-04-18T21:20:54.909Z,99357.95
2018-04-18T21:23:21.135Z,99357.41
2018-04-18T21:25:47.388Z,99356.64
2018-04-18T21:28:13.619Z,99359.88
2018-04-18T21:30:39.927Z,99364.31
2018-04-18T21:33:06.155Z,99358.95
2018-04-18T21:35:32.402Z,99364.24
2018-04-18T21:37:58.659Z,99369.89
2018-04-18T21:40:24.896Z,99367.68
2018-04-18T21:42:51.207Z,99363.88
2018-04-18T21:45:17.462Z,99366.02
2018-04-18T21:47:43.699Z,99366.97
2018-04-18T21:50:09.963Z,99365.84
2018-04-18T21:52:36.190Z,99361.10
2018-04-18T21:55:02.493Z,99359.48
2018-04-18T21:57:28.720Z,99359.49
2018-04-18T22:00:13.337Z,99359.45
2018-04-18T22:08:38.623Z,99369.14
2018-04-18T22:11:05.007Z,99363.27
2018-04-18T22:13:31.323Z,99364.78
2018-04-18T22:15:57.587Z,99365.02
2018-04-18T22:18:23.811Z,99371.81
2018-04-18T22:20:50.081Z,99369.17
2018-04-18T22:23:16.327Z,99361.52
2018-04-18T22:25:42.591Z,99363.49
2018-04-18T22:28:08.827Z,99364.19
2018-04-18T22:30:47.403Z,99367.84
2018-04-18T22:33:13.635Z,99363.30
2018-04-18T22:35:39.871Z,99362.89
2018-04-18T22:38:06.128Z,99364.78
2018-04-18T22:40:32.354Z,99361.59
2018-04-18T22:42:58.618Z,99363.10
2018-04-18T22:45:24.871Z,99365.81
2018-04-18T22:47:51.132Z,99365.06
2018-04-18T22:50:17.387Z,99370.22
2018-04-18T22:52:43.651Z,99367.34
2018-04-18T22:55:09.887Z,99363.54
2018-04-18T22:57:36.110Z,99369.36
2018-04-18T23:00:02.456Z,99366.20
2018-04-18T23:02:28.687Z,99367.08
2018-04-18T23:04:54.919Z,99375.14
2018-04-18T23:07:21.187Z,99372.97
2018-04-18T23:09:47.451Z,99378.73
2018-04-18T23:12:13.731Z,99381.16
2018-04-18T23:14:39.968Z,99378.90
2018-04-18T23:17:06.232Z,99380.94
2018-04-18T23:19:32.467Z,99377.83
2018-04-18T23:21:58.696Z,99383.59
2018-04-18T23:24:24.995Z,99380.10
2018-04-18T23:26:51.230Z,99374.99
2018-04-18T23:29:17.457Z,99377.41
2018-04-18T23:31:43.724Z,99379.51
2018-04-18T23:34:09.964Z,99380.30
2018-04-18T23:36:36.203Z,99377.12
2018-04-18T23:39:02.545Z,99377.58
2018-04-18T23:41:28.771Z,99375.19
2018-04-18T23:43:55.076Z,99370.23
2018-04-18T23:46:21.327Z,99370.91
2018-04-18T23:48:47.559Z,99371.75
2018-04-18T23:51:14.629Z,99367.42
2018-04-18T23:53:40.862Z,99362.07
2018-04-18T23:56:07.127Z,99358.99
2018-04-18T23:58:33.356Z,99362.86
